createdAt,value
2022-11-15T00:02:46.034Z,5.58
2022-11-15T00:06:07.173Z,5.53
2022-11-15T00:09:28.590Z,5.42
2022-11-15T00:12:49.825Z,5.42
2022-11-15T00:16:12.654Z,5.53
2022-11-15T00:19:34.290Z,5.68
2022-11-15T00:22:54.996Z,5.54
2022-11-15T00:26:16.519Z,5.67
2022-11-15T00:29:39.586Z,5.43
2022-11-15T00:33:20.307Z,5.60
2022-11-15T00:36:41.369Z,5.45
2022-11-15T00:40:02.758Z,5.47
2022-11-15T00:43:23.807Z,5.58
2022-11-15T00:46:44.892Z,5.46
2022-11-15T00:50:06.153Z,5.34
2022-11-15T00:53:27.329Z,5.41
2022-11-15T00:56:48.190Z,5.51
2022-11-15T01:00:09.957Z,5.50
2022-11-15T01:03:34.271Z,5.56
2022-11-15T01:06:55.550Z,5.62
2022-11-15T01:10:16.528Z,5.52
2022-11-15T01:13:38.812Z,5.54
2022-11-15T01:16:59.681Z,5.62
2022-11-15T01:20:21.665Z,5.61
2022-11-15T01:23:42.629Z,5.60
2022-11-15T01:27:03.509Z,5.63
2022-11-15T01:30:25.368Z,5.63
2022-11-15T01:33:47.792Z,5.54
2022-11-15T01:37:09.243Z,5.49
2022-11-15T01:40:32.137Z,5.66
2022-11-15T01:43:55.214Z,5.61
2022-11-15T01:47:20.950Z,5.63
2022-11-15T01:50:42.617Z,5.66
2022-11-15T01:54:10.939Z,5.71
2022-11-15T01:57:32.576Z,5.54
2022-11-15T02:00:53.949Z,5.46
2022-11-15T02:04:20.671Z,5.60
2022-11-15T02:07:42.135Z,5.47
2022-11-15T02:11:08.713Z,5.45
2022-11-15T02:14:32.208Z,5.56
2022-11-15T02:18:23.942Z,5.59
2022-11-15T02:21:56.935Z,5.55
2022-11-15T02:25:35.963Z,5.69
2022-11-15T02:29:09.846Z,5.56
2022-11-15T02:32:55.600Z,5.46
2022-11-15T02:36:26.470Z,5.54
2022-11-15T02:39:50.498Z,5.43
2022-11-15T02:43:36.926Z,5.57
2022-11-15T02:47:14.611Z,5.60
2022-11-15T02:50:36.539Z,5.47
2022-11-15T02:53:57.739Z,5.43
2022-11-15T02:57:22.227Z,5.54
2022-11-15T03:00:59.338Z,5.55
2022-11-15T03:04:45.942Z,5.53
2022-11-15T03:08:34.046Z,5.16
2022-11-15T03:12:05.145Z,5.38
2022-11-15T03:15:32.913Z,5.40
2022-11-15T03:19:01.362Z,5.13
2022-11-15T03:22:27.000Z,5.25
2022-11-15T03:25:51.286Z,5.08
2022-11-15T03:29:20.644Z,5.15
2022-11-15T03:32:47.363Z,5.17
2022-11-15T03:36:08.800Z,5.29
2022-11-15T03:39:30.522Z,5.15
2022-11-15T03:43:05.790Z,5.16
2022-11-15T03:46:30.345Z,5.26
2022-11-15T03:49:54.776Z,5.26
2022-11-15T03:53:15.983Z,5.23
2022-11-15T03:56:36.962Z,5.25
2022-11-15T03:59:57.986Z,5.14
2022-11-15T04:03:18.948Z,4.87
2022-11-15T04:06:39.893Z,4.97
2022-11-15T04:10:04.605Z,5.04
2022-11-15T04:13:25.668Z,5.02
2022-11-15T04:16:46.724Z,5.03
2022-11-15T04:20:29.872Z,5.23
2022-11-15T04:24:23.534Z,5.09
2022-11-15T04:27:44.832Z,5.24
2022-11-15T04:31:05.999Z,5.31
2022-11-15T04:34:27.046Z,5.25
2022-11-15T04:37:49.451Z,5.27
2022-11-15T04:41:10.497Z,5.33
2022-11-15T04:44:31.413Z,5.21
2022-11-15T04:47:52.367Z,5.08
2022-11-15T04:51:13.608Z,5.07
2022-11-15T04:54:35.011Z,5.15
2022-11-15T04:58:00.746Z,5.01
2022-11-15T05:01:24.358Z,4.99
2022-11-15T05:04:45.642Z,4.94
2022-11-15T05:08:06.855Z,5.04
2022-11-15T05:11:28.443Z,5.01
2022-11-15T05:14:49.749Z,5.03
2022-11-15T05:18:11.832Z,5.06
2022-11-15T05:21:33.644Z,5.22
2022-11-15T05:24:54.850Z,5.21
2022-11-15T05:28:15.962Z,5.21
2022-11-15T05:31:42.360Z,5.16
2022-11-15T05:35:03.820Z,5.18
2022-11-15T05:38:24.861Z,5.33
2022-11-15T05:41:54.216Z,5.27
2022-11-15T05:45:15.677Z,5.26
2022-11-15T05:48:38.963Z,5.13
2022-11-15T05:52:01.442Z,5.34
2022-11-15T05:55:22.519Z,5.27
2022-11-15T05:58:44.158Z,5.32
2022-11-15T06:02:05.330Z,5.42
2022-11-15T06:05:26.303Z,5.61
2022-11-15T06:08:48.841Z,5.66
2022-11-15T06:12:10.072Z,5.73
2022-11-15T06:15:32.656Z,5.76
2022-11-15T06:18:53.466Z,5.82
2022-11-15T06:22:14.762Z,5.85
2022-11-15T06:25:35.630Z,5.90
2022-11-15T06:28:56.767Z,5.96
2022-11-15T06:32:17.898Z,5.90
2022-11-15T06:35:38.858Z,5.94
2022-11-15T06:38:59.842Z,6.07
2022-11-15T06:42:20.805Z,6.04
2022-11-15T06:45:41.602Z,6.07
2022-11-15T06:49:08.227Z,6.22
2022-11-15T06:52:33.553Z,6.33
2022-11-15T06:55:55.656Z,6.39
2022-11-15T06:59:17.052Z,6.26
2022-11-15T07:02:39.006Z,6.21
2022-11-15T07:06:05.679Z,6.32
2022-11-15T07:09:27.903Z,6.50
2022-11-15T07:12:49.996Z,6.55
2022-11-15T07:16:12.074Z,6.70
2022-11-15T07:19:33.228Z,6.76
2022-11-15T07:23:02.124Z,6.88
2022-11-15T07:26:23.006Z,6.99
2022-11-15T07:29:44.401Z,7.01
2022-11-15T07:33:05.597Z,6.96
2022-11-15T07:36:26.640Z,6.73
2022-11-15T07:39:47.891Z,6.82
2022-11-15T07:43:09.622Z,7.07
2022-11-15T07:46:30.859Z,7.09
2022-11-15T07:49:52.136Z,7.13
2022-11-15T07:53:14.403Z,6.80
2022-11-15T07:56:35.519Z,6.85
2022-11-15T07:59:56.640Z,7.02
2022-11-15T08:03:18.525Z,7.23
2022-11-15T08:06:39.594Z,7.46
2022-11-15T08:10:02.179Z,7.26
2022-11-15T08:13:23.264Z,7.34
2022-11-15T08:16:44.736Z,7.48
2022-11-15T08:20:06.138Z,7.53
2022-11-15T08:23:27.285Z,7.55
2022-11-15T08:26:48.220Z,7.59
2022-11-15T08:30:10.030Z,7.61
2022-11-15T08:33:32.355Z,7.62
2022-11-15T08:36:53.443Z,7.87
2022-11-15T08:40:15.639Z,7.88
2022-11-15T08:43:36.896Z,7.98
2022-11-15T08:46:58.034Z,8.12
2022-11-15T08:50:19.454Z,8.21
2022-11-15T08:53:41.032Z,8.23
2022-11-15T08:57:02.453Z,8.32
2022-11-15T09:00:23.704Z,8.34
2022-11-15T09:03:44.708Z,8.36
2022-11-15T09:07:05.450Z,8.45
2022-11-15T09:10:26.277Z,8.43
2022-11-15T09:13:47.437Z,8.38
2022-11-15T09:17:09.854Z,8.54
2022-11-15T09:20:30.835Z,8.65
2022-11-15T09:23:53.020Z,8.72
2022-11-15T09:27:14.369Z,8.75
2022-11-15T09:30:35.650Z,9.18
2022-11-15T09:33:57.041Z,9.10
2022-11-15T09:37:17.961Z,9.51
2022-11-15T09:40:39.308Z,9.24
2022-11-15T09:44:25.244Z,9.26
2022-11-15T09:48:14.221Z,9.29
2022-11-15T09:51:47.688Z,10.16
2022-11-15T09:54:54.698Z,9.84
2022-11-15T09:58:11.849Z,9.66
2022-11-15T10:01:37.069Z,9.44
2022-11-15T10:04:41.408Z,9.43
2022-11-15T10:08:05.385Z,9.45
2022-11-15T10:14:39.532Z,9.60
2022-11-15T10:18:03.813Z,9.44
2022-11-15T10:21:35.185Z,9.50
2022-11-15T10:24:43.002Z,9.53
2022-11-15T10:27:52.485Z,9.66
2022-11-15T10:30:58.001Z,9.74
2022-11-15T10:34:19.653Z,10.02
2022-11-15T10:37:40.757Z,9.88
2022-11-15T10:40:46.182Z,10.35
2022-11-15T10:44:13.274Z,10.40
2022-11-15T10:47:39.506Z,10.91
2022-11-15T10:50:48.382Z,10.75
2022-11-15T10:53:52.863Z,10.94
2022-11-15T10:57:06.326Z,10.58
2022-11-15T11:00:30.686Z,10.25
2022-11-15T11:03:39.250Z,10.37
2022-11-15T11:06:52.380Z,10.32
2022-11-15T11:09:59.925Z,10.50
2022-11-15T11:13:15.476Z,10.46
2022-11-15T11:16:26.005Z,10.59
2022-11-15T11:19:34.286Z,10.70
2022-11-15T11:22:43.397Z,10.69
2022-11-15T11:26:50.572Z,10.58
2022-11-15T11:30:03.480Z,10.93
2022-11-15T11:33:22.872Z,11.19
2022-11-15T11:36:25.979Z,11.24
2022-11-15T11:39:50.232Z,11.12
2022-11-15T11:43:20.142Z,11.00
2022-11-15T11:46:46.071Z,11.02
2022-11-15T11:49:53.853Z,11.23
2022-11-15T11:53:03.574Z,11.11
2022-11-15T11:56:28.688Z,10.96
2022-11-15T11:59:48.231Z,10.69
2022-11-15T12:03:00.904Z,10.89
2022-11-15T12:06:16.767Z,10.73
2022-11-15T12:09:31.046Z,10.61
2022-11-15T12:13:02.610Z,10.78
2022-11-15T12:16:25.358Z,11.03
2022-11-15T12:19:30.625Z,11.30
2022-11-15T12:22:46.758Z,11.56
2022-11-15T12:25:55.878Z,11.75
2022-11-15T12:29:10.275Z,11.78
2022-11-15T12:32:38.627Z,11.58
2022-11-15T12:35:43.841Z,11.52
2022-11-15T12:38:52.654Z,11.54
2022-11-15T12:41:57.969Z,11.51
2022-11-15T12:45:00.806Z,11.47
2022-11-15T12:48:18.285Z,11.45
2022-11-15T12:51:23.846Z,11.40
2022-11-15T12:54:27.618Z,11.27
2022-11-15T12:57:34.119Z,11.38
2022-11-15T13:00:40.126Z,11.34
2022-11-15T13:04:20.891Z,11.29
2022-11-15T13:07:35.665Z,11.69
2022-11-15T13:10:39.534Z,11.60
2022-11-15T13:13:45.649Z,11.57
2022-11-15T13:16:49.021Z,11.55
2022-11-15T13:20:21.587Z,11.57
2022-11-15T13:23:24.650Z,11.42
2022-11-15T13:26:27.481Z,11.48
2022-11-15T13:29:30.799Z,11.49
2022-11-15T13:32:33.520Z,11.52
2022-11-15T13:35:40.957Z,11.37
2022-11-15T13:38:44.118Z,11.43
2022-11-15T13:41:51.612Z,11.32
2022-11-15T13:45:03.415Z,11.31
2022-11-15T13:48:09.113Z,11.50
2022-11-15T13:51:20.734Z,11.39
2022-11-15T13:54:29.662Z,11.46
2022-11-15T13:57:40.366Z,11.37
2022-11-15T14:00:46.450Z,11.44
2022-11-15T14:03:54.392Z,11.25
2022-11-15T14:07:00.588Z,11.29
2022-11-15T14:10:33.272Z,11.22
2022-11-15T14:13:36.634Z,11.13
2022-11-15T14:16:42.149Z,11.05
2022-11-15T14:19:44.624Z,11.01
2022-11-15T14:22:58.971Z,10.88
2022-11-15T14:26:01.600Z,10.85
2022-11-15T14:29:32.122Z,10.79
2022-11-15T14:32:50.834Z,10.72
2022-11-15T14:35:54.010Z,10.72
2022-11-15T14:38:56.752Z,10.67
2022-11-15T14:41:59.619Z,10.60
2022-11-15T14:45:02.261Z,10.50
2022-11-15T14:48:06.160Z,10.36
2022-11-15T14:51:17.428Z,10.30
2022-11-15T14:54:20.339Z,10.37
2022-11-15T14:57:23.294Z,10.30
2022-11-15T15:00:30.919Z,10.26
2022-11-15T15:03:36.476Z,10.34
2022-11-15T15:06:39.383Z,10.19
2022-11-15T15:09:42.946Z,10.21
2022-11-15T15:12:46.653Z,10.18
2022-11-15T15:15:50.710Z,10.19
2022-11-15T15:18:55.035Z,10.20
2022-11-15T15:21:57.628Z,10.24
2022-11-15T15:25:00.598Z,10.24
2022-11-15T15:28:03.474Z,10.18
2022-11-15T15:31:06.813Z,10.14
2022-11-15T15:34:15.349Z,10.13
2022-11-15T15:37:27.251Z,10.11
2022-11-15T15:40:32.551Z,10.12
2022-11-15T15:43:35.622Z,10.22
2022-11-15T15:46:38.203Z,10.18
2022-11-15T15:49:41.112Z,10.14
2022-11-15T15:52:43.672Z,10.17
2022-11-15T15:55:46.532Z,10.14
2022-11-15T15:58:49.129Z,10.21
2022-11-15T16:01:52.001Z,10.22
2022-11-15T16:04:54.872Z,10.18
2022-11-15T16:07:57.394Z,10.25
2022-11-15T16:11:04.678Z,10.20
2022-11-15T16:14:07.408Z,10.17
2022-11-15T16:17:19.554Z,10.16
2022-11-15T16:20:38.213Z,10.14
2022-11-15T16:23:41.053Z,10.19
2022-11-15T16:26:43.845Z,10.20
2022-11-15T16:29:47.795Z,10.22
2022-11-15T16:32:50.726Z,10.20
2022-11-15T16:35:53.780Z,10.19
2022-11-15T16:38:56.520Z,10.16
2022-11-15T16:42:00.729Z,10.29
2022-11-15T16:45:03.434Z,10.19
2022-11-15T16:48:06.579Z,10.15
2022-11-15T16:51:12.077Z,10.25
2022-11-15T16:54:15.378Z,10.20
2022-11-15T16:57:18.042Z,10.15
2022-11-15T17:00:21.870Z,10.23
2022-11-15T17:03:25.265Z,10.20
2022-11-15T17:06:28.501Z,10.26
2022-11-15T17:09:31.375Z,10.26
2022-11-15T17:12:35.785Z,10.20
2022-11-15T17:15:38.419Z,10.19
2022-11-15T17:18:42.342Z,10.15
2022-11-15T17:21:49.604Z,10.11
2022-11-15T17:24:54.670Z,10.07
2022-11-15T17:27:57.271Z,10.04
2022-11-15T17:31:01.236Z,10.12
2022-11-15T17:34:05.657Z,10.15
2022-11-15T17:37:08.482Z,10.15
2022-11-15T17:40:11.983Z,10.14
2022-11-15T17:43:15.104Z,10.06
2022-11-15T17:46:19.691Z,10.10
2022-11-15T17:49:22.811Z,10.01
2022-11-15T17:52:25.775Z,9.96
2022-11-15T17:55:28.630Z,10.00
2022-11-15T17:58:32.936Z,10.00
2022-11-15T18:01:38.411Z,10.01
2022-11-15T18:04:41.381Z,10.03
2022-11-15T18:07:43.975Z,10.00
2022-11-15T18:10:47.067Z,10.01
2022-11-15T18:13:53.301Z,10.04
2022-11-15T18:16:58.544Z,10.02
2022-11-15T18:20:01.785Z,10.01
2022-11-15T18:23:05.170Z,10.01
2022-11-15T18:26:09.960Z,9.97
2022-11-15T18:29:14.213Z,9.99
2022-11-15T18:32:17.826Z,9.96
2022-11-15T18:35:20.683Z,9.93
2022-11-15T18:38:23.357Z,9.98
2022-11-15T18:41:30.759Z,9.99
2022-11-15T18:44:34.497Z,9.84
2022-11-15T18:47:37.764Z,9.93
2022-11-15T18:50:42.859Z,9.79
2022-11-15T18:53:46.931Z,9.83
2022-11-15T18:56:51.378Z,9.78
2022-11-15T18:59:54.991Z,9.83
2022-11-15T19:02:57.834Z,9.81
2022-11-15T19:06:06.068Z,9.82
2022-11-15T19:09:10.051Z,9.76
2022-11-15T19:12:13.035Z,9.76
2022-11-15T19:15:15.740Z,9.71
2022-11-15T19:18:18.823Z,9.79
2022-11-15T19:21:21.778Z,9.79
2022-11-15T19:24:26.414Z,9.75
2022-11-15T19:27:35.516Z,9.73
2022-11-15T19:30:41.734Z,9.66
2022-11-15T19:33:45.410Z,9.66
2022-11-15T19:36:48.401Z,9.70
2022-11-15T19:39:51.005Z,9.66
2022-11-15T19:42:54.028Z,9.69
2022-11-15T19:46:02.645Z,9.67
2022-11-15T19:49:10.981Z,9.54
2022-11-15T19:52:14.227Z,9.68
2022-11-15T19:55:18.226Z,9.63
2022-11-15T19:58:21.725Z,9.68
2022-11-15T20:01:27.057Z,9.69
2022-11-15T20:04:30.658Z,9.66
2022-11-15T20:07:33.615Z,9.58
2022-11-15T20:10:39.445Z,9.65
2022-11-15T20:13:43.168Z,9.62
2022-11-15T20:16:50.143Z,9.65
2022-11-15T20:19:55.643Z,9.56
2022-11-15T20:23:02.354Z,9.53
2022-11-15T20:26:07.000Z,9.50
2022-11-15T20:29:10.528Z,9.54
2022-11-15T20:32:13.077Z,9.52
2022-11-15T20:35:16.404Z,9.58
2022-11-15T20:38:20.513Z,9.63
2022-11-15T20:41:23.586Z,9.59
2022-11-15T20:44:26.606Z,9.55
2022-11-15T20:47:32.209Z,9.51
2022-11-15T20:50:42.504Z,9.49
2022-11-15T20:53:47.458Z,9.47
2022-11-15T20:56:50.566Z,9.47
2022-11-15T20:59:53.450Z,9.47
2022-11-15T21:02:56.025Z,9.56
2022-11-15T21:05:59.991Z,9.51
2022-11-15T21:09:21.472Z,9.45
2022-11-15T21:12:24.341Z,9.43
2022-11-15T21:15:27.153Z,9.47
2022-11-15T21:18:32.370Z,9.52
2022-11-15T21:21:38.767Z,9.50
2022-11-15T21:24:42.406Z,9.39
2022-11-15T21:27:44.998Z,9.49
2022-11-15T21:30:56.519Z,9.51
2022-11-15T21:34:01.899Z,9.54
2022-11-15T21:37:05.193Z,9.46
2022-11-15T21:40:10.733Z,9.44
2022-11-15T21:43:13.549Z,9.50
2022-11-15T21:46:16.046Z,9.50
2022-11-15T21:49:18.971Z,9.48
2022-11-15T21:52:21.537Z,9.36
2022-11-15T21:55:24.423Z,9.39
2022-11-15T21:58:28.085Z,9.46
2022-11-15T22:02:03.215Z,9.40
2022-11-15T22:05:06.647Z,9.47
2022-11-15T22:08:09.276Z,9.40
2022-11-15T22:11:12.499Z,9.39
2022-11-15T22:14:15.037Z,9.49
2022-11-15T22:17:17.959Z,9.39
2022-11-15T22:20:43.442Z,9.41
2022-11-15T22:23:44.826Z,9.40
2022-11-15T22:26:47.544Z,9.38
2022-11-15T22:29:50.743Z,9.36
2022-11-15T22:32:53.429Z,9.42
2022-11-15T22:35:57.082Z,9.39
2022-11-15T22:38:59.848Z,9.50
2022-11-15T22:42:02.924Z,9.40
2022-11-15T22:45:06.151Z,9.36
2022-11-15T22:48:09.097Z,9.43
2022-11-15T22:51:13.603Z,9.38
2022-11-15T22:54:16.793Z,9.31
2022-11-15T22:57:19.470Z,9.29
2022-11-15T23:00:23.259Z,9.33
2022-11-15T23:03:27.109Z,9.33
2022-11-15T23:06:30.185Z,9.38
2022-11-15T23:09:32.959Z,9.40
2022-11-15T23:12:54.796Z,9.39
2022-11-15T23:16:23.610Z,9.48
2022-11-15T23:19:46.886Z,9.44
2022-11-15T23:23:09.693Z,9.35
2022-11-15T23:26:32.921Z,9.35
2022-11-15T23:29:55.690Z,9.34
2022-11-15T23:33:17.507Z,9.31
2022-11-15T23:36:20.209Z,9.31
2022-11-15T23:39:23.295Z,9.37
2022-11-15T23:42:25.918Z,9.37
2022-11-15T23:45:29.485Z,9.30
2022-11-15T23:48:32.794Z,9.27
2022-11-15T23:51:36.245Z,9.29
2022-11-15T23:54:38.907Z,9.24
2022-11-15T23:57:41.877Z,9.30
